createdAt,value
2023-12-07T00:01:06.539Z,96880.81
2023-12-07T00:03:38.280Z,96884.44
2023-12-07T00:06:09.940Z,96883.69
2023-12-07T00:08:41.600Z,96880.91
2023-12-07T00:11:13.275Z,96889.88
2023-12-07T00:13:45.077Z,96893.53
2023-12-07T00:16:16.809Z,96897.41
2023-12-07T00:18:48.680Z,96895.72
2023-12-07T00:21:20.892Z,96903.75
2023-12-07T00:23:52.591Z,96902.84
2023-12-07T00:26:24.196Z,96905.56
2023-12-07T00:28:55.925Z,96901.56
2023-12-07T00:31:27.645Z,96903.78
2023-12-07T00:33:59.337Z,96911.06
2023-12-07T00:36:31.115Z,96910.25
2023-12-07T00:39:05.234Z,96910.75
2023-12-07T00:41:36.804Z,96919.53
2023-12-07T00:44:08.387Z,96913.97
2023-12-07T00:46:40.002Z,96916.75
2023-12-07T00:49:11.783Z,96920.44
2023-12-07T00:51:44.173Z,96919.22
2023-12-07T00:54:15.812Z,96916.16
2023-12-07T00:56:47.435Z,96917.66
2023-12-07T00:59:19.190Z,96913.34
2023-12-07T01:01:50.853Z,96906.25
2023-12-07T01:04:22.570Z,96907.19
2023-12-07T01:06:54.460Z,96910.28
2023-12-07T01:09:27.408Z,96909.03
2023-12-07T01:12:01.860Z,96897.63
2023-12-07T01:14:33.570Z,96902.09
2023-12-07T01:17:05.539Z,96912.59
2023-12-07T01:19:37.329Z,96910.88
2023-12-07T01:22:08.941Z,96913.38
2023-12-07T01:24:40.784Z,96909.97
2023-12-07T01:27:12.476Z,96905.66
2023-12-07T01:29:44.171Z,96908.13
2023-12-07T01:32:17.141Z,96919.19
2023-12-07T01:34:48.821Z,96925.03
2023-12-07T01:37:21.409Z,96938.31
2023-12-07T01:39:53.377Z,96939.84
2023-12-07T01:42:25.326Z,96943.25
2023-12-07T01:44:57.136Z,96945.75
2023-12-07T01:47:28.819Z,96951.50
2023-12-07T01:50:01.695Z,96947.59
2023-12-07T01:52:34.286Z,96947.25
2023-12-07T01:55:09.077Z,96951.59
2023-12-07T01:57:42.706Z,96956.41
2023-12-07T02:00:15.345Z,96944.19
2023-12-07T02:02:48.756Z,96954.28
2023-12-07T02:05:20.572Z,96951.94
2023-12-07T02:07:52.702Z,96953.47
2023-12-07T02:10:25.402Z,96964.44
2023-12-07T02:12:57.211Z,96959.34
2023-12-07T02:15:28.965Z,96959.66
2023-12-07T02:18:21.967Z,96960.16
2023-12-07T02:21:01.995Z,96967.03
2023-12-07T02:23:45.821Z,96964.31
2023-12-07T02:26:21.574Z,96963.97
2023-12-07T02:28:53.606Z,96960.25
2023-12-07T02:31:25.393Z,96962.16
2023-12-07T02:33:57.457Z,96968.34
2023-12-07T02:36:30.927Z,96972.34
2023-12-07T02:39:04.831Z,96967.09
2023-12-07T02:41:37.626Z,96964.00
2023-12-07T02:44:09.681Z,96958.78
2023-12-07T02:46:41.703Z,96960.75
2023-12-07T02:49:13.470Z,96961.53
2023-12-07T02:51:45.120Z,96956.59
2023-12-07T02:54:16.730Z,96954.91
2023-12-07T02:56:49.946Z,96959.34
2023-12-07T02:59:21.526Z,96966.31
2023-12-07T03:01:53.239Z,96954.88
2023-12-07T03:04:25.376Z,96965.53
2023-12-07T03:06:57.054Z,96964.75
2023-12-07T03:09:28.743Z,96970.03
2023-12-07T03:12:00.397Z,96962.75
2023-12-07T03:14:32.018Z,96970.16
2023-12-07T03:17:03.791Z,96964.47
2023-12-07T03:19:40.077Z,96964.63
2023-12-07T03:22:11.774Z,96964.00
2023-12-07T03:24:50.053Z,96961.50
2023-12-07T03:27:22.116Z,96965.84
2023-12-07T03:29:53.898Z,96967.38
2023-12-07T03:32:25.824Z,96962.09
2023-12-07T03:34:57.695Z,96959.13
2023-12-07T03:37:29.338Z,96961.75
2023-12-07T03:40:00.996Z,96963.31
2023-12-07T03:42:50.380Z,96961.50
2023-12-07T03:45:24.876Z,96960.25
2023-12-07T03:47:56.569Z,96949.78
2023-12-07T03:50:28.510Z,96955.94
2023-12-07T03:53:00.211Z,96952.25
2023-12-07T03:55:31.811Z,96964.06
2023-12-07T03:58:03.985Z,96946.88
2023-12-07T04:00:35.601Z,96957.56
2023-12-07T04:03:07.320Z,96953.69
2023-12-07T04:05:39.420Z,96958.38
2023-12-07T04:08:11.094Z,96965.78
2023-12-07T04:10:42.874Z,96966.78
2023-12-07T04:13:14.707Z,96954.91
2023-12-07T04:15:46.657Z,96949.34
2023-12-07T04:18:19.007Z,96950.91
2023-12-07T04:20:50.947Z,96956.59
2023-12-07T04:23:22.586Z,96960.97
2023-12-07T04:25:54.436Z,96971.00
2023-12-07T04:28:26.194Z,96966.06
2023-12-07T04:30:57.895Z,96966.81
2023-12-07T04:33:30.076Z,96967.91
2023-12-07T04:36:02.074Z,96967.03
2023-12-07T04:38:33.760Z,96967.53
2023-12-07T04:41:05.450Z,96960.72
2023-12-07T04:43:37.188Z,96957.97
2023-12-07T04:46:08.881Z,96963.81
2023-12-07T04:48:41.462Z,96965.66
2023-12-07T04:51:13.117Z,96962.78
2023-12-07T04:53:44.842Z,96959.75
2023-12-07T04:56:16.533Z,96963.16
2023-12-07T04:58:48.155Z,96955.28
2023-12-07T05:01:23.136Z,96959.53
2023-12-07T05:03:54.861Z,96961.94
2023-12-07T05:06:26.509Z,96960.72
2023-12-07T05:08:58.156Z,96959.00
2023-12-07T05:11:29.942Z,96961.84
2023-12-07T05:14:01.524Z,96956.50
2023-12-07T05:16:33.148Z,96965.03
2023-12-07T05:19:04.879Z,96962.59
2023-12-07T05:21:36.851Z,96964.81
2023-12-07T05:24:09.510Z,96953.94
2023-12-07T05:26:47.126Z,96955.22
2023-12-07T05:29:19.127Z,96955.56
2023-12-07T05:31:53.988Z,96955.81
2023-12-07T05:34:25.588Z,96951.50
2023-12-07T05:36:57.169Z,96952.06
2023-12-07T05:39:28.788Z,96951.00
2023-12-07T05:42:00.479Z,96952.28
2023-12-07T05:44:32.637Z,96949.72
2023-12-07T05:47:05.116Z,96955.81
2023-12-07T05:49:36.843Z,96956.53
2023-12-07T05:52:08.480Z,96963.69
2023-12-07T05:54:43.394Z,96957.94
2023-12-07T05:57:15.905Z,96968.66
2023-12-07T05:59:48.171Z,96965.53
2023-12-07T06:02:19.867Z,96970.63
2023-12-07T06:04:51.505Z,96973.09
2023-12-07T06:07:23.266Z,96966.91
2023-12-07T06:09:54.944Z,96966.69
2023-12-07T06:12:29.301Z,96976.06
2023-12-07T06:15:02.517Z,96967.56
2023-12-07T06:17:35.129Z,96970.66
2023-12-07T06:20:07.446Z,96969.69
2023-12-07T06:22:39.321Z,96969.34
2023-12-07T06:25:10.952Z,96968.91
2023-12-07T06:27:42.748Z,96964.91
2023-12-07T06:30:14.553Z,96967.34
2023-12-07T06:32:46.278Z,96965.81
2023-12-07T06:35:18.461Z,96963.91
2023-12-07T06:37:50.040Z,96954.09
2023-12-07T06:40:21.871Z,96958.28
2023-12-07T06:42:53.504Z,96958.50
2023-12-07T06:45:25.068Z,96963.13
2023-12-07T06:47:56.912Z,96958.06
2023-12-07T06:50:28.643Z,96957.16
2023-12-07T06:53:00.926Z,96951.84
2023-12-07T06:55:33.575Z,96966.88
2023-12-07T06:58:06.300Z,96964.03
2023-12-07T07:00:37.951Z,96966.59
2023-12-07T07:03:09.624Z,96966.44
2023-12-07T07:05:41.407Z,96962.91
2023-12-07T07:08:13.169Z,96966.22
2023-12-07T07:10:45.654Z,96967.59
2023-12-07T07:13:18.310Z,96972.00
2023-12-07T07:15:50.207Z,96974.66
2023-12-07T07:18:25.126Z,96969.25
2023-12-07T07:20:57.005Z,96969.78
2023-12-07T07:23:28.650Z,96965.91
2023-12-07T07:26:00.285Z,96969.78
2023-12-07T07:28:32.522Z,96963.59
2023-12-07T07:31:04.455Z,96967.78
2023-12-07T07:33:36.253Z,96959.81
2023-12-07T07:36:08.424Z,96963.59
2023-12-07T07:38:40.611Z,96966.59
2023-12-07T07:41:12.423Z,96964.69
2023-12-07T07:43:44.185Z,96960.69
2023-12-07T07:46:16.099Z,96968.00
2023-12-07T07:48:47.850Z,96964.44
2023-12-07T07:51:19.560Z,96967.56
2023-12-07T07:53:51.190Z,96969.69
2023-12-07T07:56:22.838Z,96956.63
2023-12-07T07:58:54.468Z,96955.63
2023-12-07T08:01:26.108Z,96952.72
2023-12-07T08:03:57.928Z,96955.56
2023-12-07T08:06:29.542Z,96955.66
2023-12-07T08:09:01.288Z,96957.94
2023-12-07T08:11:34.507Z,96956.03
2023-12-07T08:14:06.179Z,96950.34
2023-12-07T08:16:37.879Z,96960.13
2023-12-07T08:19:10.385Z,96965.56
2023-12-07T08:21:42.085Z,96959.41
2023-12-07T08:24:14.092Z,96956.16
2023-12-07T08:26:45.744Z,96950.91
2023-12-07T08:29:17.488Z,96948.53
2023-12-07T08:31:49.398Z,96944.72
2023-12-07T08:34:24.180Z,96945.09
2023-12-07T08:36:56.123Z,96946.69
2023-12-07T08:39:27.800Z,96934.91
2023-12-07T08:41:59.505Z,96929.50
2023-12-07T08:44:31.169Z,96936.22
2023-12-07T08:47:03.548Z,96931.81
2023-12-07T08:49:35.355Z,96921.25
2023-12-07T08:52:22.092Z,96917.66
2023-12-07T08:54:59.127Z,96919.91
2023-12-07T08:57:30.796Z,96908.34
2023-12-07T09:00:02.478Z,96902.50
2023-12-07T09:02:42.478Z,96907.22
2023-12-07T09:05:19.417Z,96897.91
2023-12-07T09:07:51.024Z,96899.91
2023-12-07T09:10:22.983Z,96896.22
2023-12-07T09:12:54.711Z,96905.44
2023-12-07T09:15:26.413Z,96906.81
2023-12-07T09:17:58.163Z,96908.38
2023-12-07T09:20:30.133Z,96900.97
2023-12-07T09:23:01.759Z,96908.78
2023-12-07T09:25:34.076Z,96910.56
2023-12-07T09:28:06.094Z,96919.22
2023-12-07T09:30:37.834Z,96927.25
2023-12-07T09:33:09.548Z,96924.16
2023-12-07T09:35:41.391Z,96931.22
2023-12-07T09:38:13.077Z,96941.34
2023-12-07T09:40:46.707Z,96937.06
2023-12-07T09:43:18.628Z,96947.56
2023-12-07T09:45:52.441Z,96951.47
2023-12-07T09:48:25.096Z,96933.56
2023-12-07T09:50:57.724Z,96925.41
2023-12-07T09:53:30.948Z,96926.16
2023-12-07T09:56:02.671Z,96915.78
2023-12-07T09:58:40.730Z,96907.22
2023-12-07T10:01:16.241Z,96901.19
2023-12-07T10:03:49.472Z,96895.47
2023-12-07T10:06:22.423Z,96890.06
2023-12-07T10:09:05.085Z,96890.97
2023-12-07T10:11:36.665Z,96894.81
2023-12-07T10:14:09.101Z,96888.22
2023-12-07T10:16:57.376Z,96889.22
2023-12-07T10:19:32.275Z,96881.16
2023-12-07T10:22:16.350Z,96874.28
2023-12-07T10:24:49.834Z,96865.56
2023-12-07T10:27:22.212Z,96863.50
2023-12-07T10:29:54.041Z,96865.19
2023-12-07T10:32:27.098Z,96872.72
2023-12-07T10:35:02.303Z,96858.13
2023-12-07T10:37:34.260Z,96864.66
2023-12-07T10:40:07.034Z,96858.75
2023-12-07T10:42:41.864Z,96848.00
2023-12-07T10:45:16.821Z,96859.41
2023-12-07T10:47:50.862Z,96850.41
2023-12-07T10:50:24.843Z,96845.59
2023-12-07T10:53:00.839Z,96843.84
2023-12-07T10:55:39.974Z,96843.59
2023-12-07T10:58:14.012Z,96830.38
2023-12-07T11:00:48.211Z,96828.72
2023-12-07T11:03:22.441Z,96830.59
2023-12-07T11:05:54.438Z,96823.84
2023-12-07T11:08:31.062Z,96819.50
2023-12-07T11:11:29.990Z,96822.47
2023-12-07T11:14:08.259Z,96818.28
2023-12-07T11:16:59.830Z,96814.06
2023-12-07T11:19:35.205Z,96804.94
2023-12-07T11:22:12.041Z,96800.44
2023-12-07T11:25:02.558Z,96787.09
2023-12-07T11:27:34.577Z,96793.03
2023-12-07T11:30:08.023Z,96786.28
2023-12-07T11:32:39.862Z,96778.44
2023-12-07T11:35:15.516Z,96781.97
2023-12-07T11:38:10.679Z,96772.22
2023-12-07T11:40:43.905Z,96774.25
2023-12-07T11:43:37.068Z,96768.00
2023-12-07T11:46:09.202Z,96775.50
2023-12-07T11:48:41.042Z,96780.09
2023-12-07T11:51:13.095Z,96770.78
2023-12-07T11:53:45.123Z,96763.19
2023-12-07T11:56:21.640Z,96759.84
2023-12-07T11:58:53.909Z,96757.31
2023-12-07T12:01:26.443Z,96753.06
2023-12-07T12:03:59.678Z,96752.59
2023-12-07T12:06:33.347Z,96745.88
2023-12-07T12:09:04.996Z,96737.94
2023-12-07T12:11:36.643Z,96728.81
2023-12-07T12:14:08.686Z,96727.03
2023-12-07T12:16:40.493Z,96717.75
2023-12-07T12:19:16.671Z,96714.38
2023-12-07T12:21:51.493Z,96724.34
2023-12-07T12:24:23.059Z,96709.59
2023-12-07T12:26:54.835Z,96693.19
2023-12-07T12:29:33.151Z,96697.81
2023-12-07T12:32:07.458Z,96688.50
2023-12-07T12:34:39.394Z,96685.78
2023-12-07T12:37:13.265Z,96689.63
2023-12-07T12:39:45.082Z,96682.72
2023-12-07T12:42:16.731Z,96671.31
2023-12-07T12:44:48.426Z,96672.47
2023-12-07T12:47:20.764Z,96659.56
2023-12-07T12:49:52.431Z,96661.91
2023-12-07T12:52:26.921Z,96664.84
2023-12-07T12:54:58.869Z,96661.72
2023-12-07T12:57:33.869Z,96669.03
2023-12-07T13:00:08.231Z,96667.63
2023-12-07T13:02:39.785Z,96655.19
2023-12-07T13:05:11.693Z,96646.91
2023-12-07T13:07:45.740Z,96644.97
2023-12-07T13:10:18.001Z,96649.63
2023-12-07T13:12:49.733Z,96630.19
2023-12-07T13:15:21.616Z,96634.25
2023-12-07T13:17:53.289Z,96632.09
2023-12-07T13:20:25.051Z,96633.84
2023-12-07T13:22:57.108Z,96638.78
2023-12-07T13:25:28.692Z,96643.50
2023-12-07T13:28:00.302Z,96641.50
2023-12-07T13:30:34.857Z,96638.91
2023-12-07T13:33:18.139Z,96649.44
2023-12-07T13:35:56.975Z,96630.75
2023-12-07T13:38:31.300Z,96642.31
2023-12-07T13:41:03.346Z,96644.34
2023-12-07T13:43:35.730Z,96648.44
2023-12-07T13:46:07.389Z,96641.66
2023-12-07T13:48:39.429Z,96636.31
2023-12-07T13:51:11.319Z,96632.78
2023-12-07T13:53:42.914Z,96637.72
2023-12-07T14:02:44.394Z,96641.97
2023-12-07T14:05:17.006Z,96631.16
2023-12-07T14:07:49.755Z,96633.53
2023-12-07T14:10:22.208Z,96636.25
2023-12-07T14:12:53.814Z,96627.59
2023-12-07T14:15:35.006Z,96629.97
2023-12-07T14:18:15.590Z,96639.47
2023-12-07T14:20:56.814Z,96634.19
2023-12-07T14:23:45.245Z,96633.25
2023-12-07T14:26:22.812Z,96627.94
2023-12-07T14:28:54.534Z,96635.84
2023-12-07T14:31:26.208Z,96640.75
2023-12-07T14:33:57.882Z,96644.69
2023-12-07T14:36:29.505Z,96631.56
2023-12-07T14:39:01.132Z,96616.16
2023-12-07T14:41:33.104Z,96616.13
2023-12-07T14:44:06.076Z,96625.00
2023-12-07T14:46:37.692Z,96612.59
2023-12-07T14:49:09.655Z,96598.69
2023-12-07T14:51:41.737Z,96582.44
2023-12-07T14:54:17.473Z,96580.88
2023-12-07T14:56:52.087Z,96585.50
2023-12-07T14:59:23.878Z,96577.63
2023-12-07T15:01:55.622Z,96571.22
2023-12-07T15:04:31.730Z,96563.72
2023-12-07T15:07:06.469Z,96559.25
2023-12-07T15:09:38.708Z,96556.50
2023-12-07T15:12:10.698Z,96560.13
2023-12-07T15:14:42.428Z,96557.47
2023-12-07T15:17:15.004Z,96552.84
2023-12-07T15:19:46.721Z,96554.00
2023-12-07T15:22:18.690Z,96553.34
2023-12-07T15:24:50.365Z,96546.00
2023-12-07T15:27:21.968Z,96547.06
2023-12-07T15:29:53.663Z,96546.28
2023-12-07T15:32:25.582Z,96550.00
2023-12-07T15:34:57.427Z,96545.63
2023-12-07T15:37:29.118Z,96545.09
2023-12-07T15:40:00.840Z,96551.63
2023-12-07T15:42:32.730Z,96552.84
2023-12-07T15:45:09.151Z,96545.56
2023-12-07T15:47:41.048Z,96534.00
2023-12-07T15:50:12.846Z,96525.31
2023-12-07T15:52:44.444Z,96522.41
2023-12-07T15:55:16.794Z,96513.81
2023-12-07T15:57:48.886Z,96517.94
2023-12-07T16:00:20.797Z,96518.31
2023-12-07T16:02:54.299Z,96514.88
2023-12-07T16:05:27.075Z,96502.00
2023-12-07T16:07:59.376Z,96499.16
2023-12-07T16:10:31.002Z,96503.41
2023-12-07T16:13:02.668Z,96504.34
2023-12-07T16:15:34.276Z,96499.03
2023-12-07T16:18:06.286Z,96492.28
2023-12-07T16:20:38.361Z,96497.06
2023-12-07T16:23:10.079Z,96491.78
2023-12-07T16:25:41.727Z,96483.94
2023-12-07T16:28:13.461Z,96473.94
2023-12-07T16:30:48.938Z,96473.19
2023-12-07T16:33:21.204Z,96470.69
2023-12-07T16:35:53.021Z,96465.28
2023-12-07T16:38:24.731Z,96458.25
2023-12-07T16:40:56.471Z,96456.38
2023-12-07T16:43:28.084Z,96458.66
2023-12-07T16:45:59.850Z,96456.47
2023-12-07T16:48:31.903Z,96449.81
2023-12-07T16:51:04.554Z,96444.09
2023-12-07T16:53:36.285Z,96441.16
2023-12-07T16:56:09.217Z,96437.78
2023-12-07T16:58:40.904Z,96435.69
2023-12-07T17:01:12.943Z,96436.09
2023-12-07T17:03:45.066Z,96435.31
2023-12-07T17:06:17.184Z,96425.72
2023-12-07T17:08:57.388Z,96422.75
2023-12-07T17:11:34.972Z,96432.53
2023-12-07T17:14:08.353Z,96423.00
2023-12-07T17:16:40.604Z,96420.31
2023-12-07T17:19:12.673Z,96424.94
2023-12-07T17:21:44.617Z,96418.16
2023-12-07T17:24:16.283Z,96413.72
2023-12-07T17:26:52.972Z,96404.94
2023-12-07T17:29:26.857Z,96398.19
2023-12-07T17:31:59.638Z,96393.00
2023-12-07T17:34:31.657Z,96420.66
2023-12-07T17:37:05.305Z,96409.72
2023-12-07T17:39:37.524Z,96398.72
2023-12-07T17:42:09.581Z,96402.63
2023-12-07T17:44:42.265Z,96401.72
2023-12-07T17:47:17.496Z,96393.22
2023-12-07T17:49:50.425Z,96387.72
2023-12-07T17:52:22.709Z,96390.97
2023-12-07T17:54:54.666Z,96389.44
2023-12-07T17:57:27.798Z,96389.91
2023-12-07T18:00:03.983Z,96395.72
2023-12-07T18:02:38.488Z,96390.78
2023-12-07T18:05:11.965Z,96391.44
2023-12-07T18:07:50.151Z,96393.13
2023-12-07T18:10:22.444Z,96386.50
2023-12-07T18:12:54.158Z,96388.38
2023-12-07T18:15:26.054Z,96383.75
2023-12-07T18:17:57.797Z,96378.66
2023-12-07T18:20:32.582Z,96384.09
2023-12-07T18:23:05.011Z,96378.25
2023-12-07T18:25:41.164Z,96377.63
2023-12-07T18:28:13.517Z,96367.00
2023-12-07T18:30:45.366Z,96359.16
2023-12-07T18:33:17.734Z,96359.47
2023-12-07T18:35:53.234Z,96363.94
2023-12-07T18:38:28.630Z,96357.00
2023-12-07T18:41:00.762Z,96361.31
2023-12-07T18:43:33.052Z,96352.06
2023-12-07T18:46:07.084Z,96356.22
2023-12-07T18:48:39.301Z,96349.63
2023-12-07T18:51:11.994Z,96348.38
2023-12-07T18:53:44.038Z,96347.75
2023-12-07T18:56:17.995Z,96348.69
2023-12-07T18:58:49.707Z,96343.09
2023-12-07T19:01:34.163Z,96353.94
2023-12-07T19:04:07.110Z,96353.94
2023-12-07T19:06:40.917Z,96365.31
2023-12-07T19:09:14.607Z,96364.06
2023-12-07T19:11:47.855Z,96345.28
2023-12-07T19:14:19.765Z,96343.47
2023-12-07T19:16:51.960Z,96351.44
2023-12-07T19:19:24.294Z,96345.47
2023-12-07T19:21:56.049Z,96346.97
2023-12-07T19:24:31.017Z,96340.34
2023-12-07T19:27:04.481Z,96351.75
2023-12-07T19:29:40.703Z,96352.00
2023-12-07T19:32:12.847Z,96358.78
2023-12-07T19:34:45.004Z,96352.19
2023-12-07T19:37:18.029Z,96355.31
2023-12-07T19:39:50.797Z,96357.44
2023-12-07T19:42:22.881Z,96362.03
2023-12-07T19:44:55.096Z,96368.91
2023-12-07T19:47:27.969Z,96366.66
2023-12-07T19:50:00.403Z,96359.25
2023-12-07T19:52:32.355Z,96373.81
2023-12-07T19:55:08.193Z,96368.59
2023-12-07T19:57:43.874Z,96369.34
2023-12-07T20:00:18.829Z,96361.81
2023-12-07T20:02:51.173Z,96356.25
2023-12-07T20:05:24.600Z,96347.56
2023-12-07T20:07:56.885Z,96339.72
2023-12-07T20:10:29.038Z,96327.94
2023-12-07T20:13:01.672Z,96315.38
2023-12-07T20:15:33.706Z,96300.91
2023-12-07T20:18:13.721Z,96299.44
2023-12-07T20:20:46.538Z,96296.09
2023-12-07T20:23:18.742Z,96298.78
2023-12-07T20:25:50.630Z,96299.34
2023-12-07T20:28:22.857Z,96300.44
2023-12-07T20:30:54.679Z,96291.25
2023-12-07T20:33:27.519Z,96296.72
2023-12-07T20:36:02.510Z,96296.97
2023-12-07T20:38:34.500Z,96288.34
2023-12-07T20:41:06.570Z,96280.63
2023-12-07T20:43:39.191Z,96265.13
2023-12-07T20:46:11.074Z,96280.06
2023-12-07T20:48:43.950Z,96270.59
2023-12-07T20:51:19.729Z,96276.50
2023-12-07T20:53:55.506Z,96270.69
2023-12-07T20:56:34.494Z,96271.97
2023-12-07T20:59:13.294Z,96273.50
2023-12-07T21:01:45.576Z,96276.78
2023-12-07T21:04:21.424Z,96268.19
2023-12-07T21:06:56.299Z,96261.41
2023-12-07T21:09:28.209Z,96265.72
2023-12-07T21:12:00.373Z,96266.94
2023-12-07T21:14:32.692Z,96263.59
2023-12-07T21:17:05.086Z,96246.03
2023-12-07T21:19:37.186Z,96242.38
2023-12-07T21:22:16.632Z,96231.22
2023-12-07T21:24:51.514Z,96211.91
2023-12-07T21:27:23.691Z,96212.38
2023-12-07T21:29:56.119Z,96214.84
2023-12-07T21:32:31.056Z,96210.41
2023-12-07T21:35:03.956Z,96213.84
2023-12-07T21:37:35.797Z,96207.31
2023-12-07T21:40:09.166Z,96195.53
2023-12-07T21:42:41.236Z,96193.31
2023-12-07T21:45:14.520Z,96190.75
2023-12-07T21:47:47.545Z,96202.53
2023-12-07T21:50:20.705Z,96200.94
2023-12-07T21:52:52.830Z,96202.59
2023-12-07T21:55:24.490Z,96190.53
2023-12-07T21:57:56.391Z,96196.94
2023-12-07T22:00:34.979Z,96195.75
2023-12-07T22:03:07.620Z,96199.44
2023-12-07T22:05:39.718Z,96215.56
2023-12-07T22:08:13.898Z,96210.78
2023-12-07T22:10:46.415Z,96208.13
2023-12-07T22:13:18.238Z,96200.38
2023-12-07T22:15:49.866Z,96200.38
2023-12-07T22:18:25.108Z,96196.44
2023-12-07T22:20:57.110Z,96200.69
2023-12-07T22:23:29.169Z,96190.91
2023-12-07T22:26:00.792Z,96190.22
2023-12-07T22:28:32.599Z,96181.97
2023-12-07T22:31:05.815Z,96179.81
2023-12-07T22:33:38.389Z,96177.53
2023-12-07T22:36:25.813Z,96178.97
2023-12-07T22:38:59.772Z,96180.53
2023-12-07T22:41:33.750Z,96177.75
2023-12-07T22:44:14.399Z,96177.28
2023-12-07T22:46:46.846Z,96180.53
2023-12-07T22:49:21.925Z,96182.41
2023-12-07T22:51:53.564Z,96175.00
2023-12-07T22:54:27.769Z,96150.13
2023-12-07T22:56:59.895Z,96155.56
2023-12-07T22:59:31.992Z,96144.66
2023-12-07T23:02:03.898Z,96133.00
2023-12-07T23:04:35.664Z,96136.47
2023-12-07T23:07:20.089Z,96139.75
2023-12-07T23:09:54.520Z,96138.56
2023-12-07T23:12:26.389Z,96136.81
2023-12-07T23:14:58.104Z,96135.91
2023-12-07T23:17:29.841Z,96141.78
2023-12-07T23:20:01.658Z,96134.75
2023-12-07T23:22:33.253Z,96129.88
2023-12-07T23:25:07.099Z,96134.94
2023-12-07T23:27:38.930Z,96132.28
2023-12-07T23:30:11.272Z,96138.53
2023-12-07T23:32:43.236Z,96124.00
2023-12-07T23:35:15.154Z,96113.66
2023-12-07T23:37:46.871Z,96108.19
2023-12-07T23:40:18.681Z,96099.66
2023-12-07T23:42:50.526Z,96105.06
2023-12-07T23:45:22.366Z,96098.63
2023-12-07T23:47:54.308Z,96101.19
2023-12-07T23:50:28.720Z,96093.16
2023-12-07T23:53:00.727Z,96096.06
2023-12-07T23:55:32.547Z,96093.03
2023-12-07T23:58:04.470Z,96088.63
